Time;durP1;ratioP1;P1;durP2;ratioP2;P2;SDS_P1;SDS_P2;PMS_P1;PMS_P2;Temp;Humidity;BMP_temperature;BMP_pressure;BME280_temperature;BME280_humidity;BME280_pressure;Samples;Min_cycle;Max_cycle;Signal;HPM_P1;HPM_P2
2023/01/29 00:02:19;;;;;;;1.75;1.65;;;;;;;4.25;58.78;100603.47;4364569;32;33657;-83
2023/01/29 00:04:47;;;;;;;1.67;1.62;;;;;;;4.32;58.48;100604.28;4398163;32;33664;-83
2023/01/29 00:07:15;;;;;;;0.80;0.80;;;;;;;4.14;59.11;100609.63;4360196;32;33137;-83
2023/01/29 00:09:42;;;;;;;0.95;0.95;;;;;;;4.16;59.01;100608.72;4383173;32;33101;-83
2023/01/29 00:12:11;;;;;;;1.75;1.60;;;;;;;4.22;58.80;100607.81;4384021;32;34390;-83
2023/01/29 00:14:38;;;;;;;3.70;2.30;;;;;;;3.84;60.21;100609.72;4370443;32;34263;-83
2023/01/29 00:17:06;;;;;;;1.02;1.02;;;;;;;3.65;61.07;100615.88;4379152;32;32546;-83
2023/01/29 00:19:35;;;;;;;2.10;1.40;;;;;;;3.59;61.27;100621.13;4367524;32;33423;-83
2023/01/29 00:22:02;;;;;;;1.92;1.70;;;;;;;3.33;62.17;100635.09;4379690;32;32870;-84
2023/01/29 00:24:30;;;;;;;3.22;1.25;;;;;;;3.57;61.67;100638.53;4370486;32;34570;-83
2023/01/29 00:26:58;;;;;;;1.33;1.23;;;;;;;3.88;60.89;100635.84;4375689;32;33885;-84
2023/01/29 00:29:25;;;;;;;2.53;2.35;;;;;;;3.79;61.12;100632.38;4371056;32;33192;-83
2023/01/29 00:31:53;;;;;;;1.33;1.30;;;;;;;3.98;60.36;100633.19;4383259;32;32882;-83
2023/01/29 00:34:22;;;;;;;1.85;1.37;;;;;;;3.86;60.45;100638.47;4384340;32;33957;-84
2023/01/29 00:36:50;;;;;;;0.75;0.75;;;;;;;4.05;60.31;100641.91;4368910;32;33565;-83
2023/01/29 00:39:23;;;;;;;1.42;1.42;;;;;;;3.83;60.75;100646.31;4369148;32;33966;-84
2023/01/29 00:44:58;;;;;;;1.25;1.25;;;;;;;4.21;59.60;100642.69;4374923;32;34394;-83
2023/01/29 00:47:35;;;;;;;0.45;0.45;;;;;;;4.17;59.48;100641.81;4383749;32;34487;-84
2023/01/29 00:50:10;;;;;;;2.60;1.65;;;;;;;3.90;60.16;100647.19;4371854;32;33953;-83
2023/01/29 00:52:39;;;;;;;0.77;0.75;;;;;;;4.00;59.74;100649.75;4367457;32;32452;-83
2023/01/29 00:55:09;;;;;;;1.20;1.10;;;;;;;3.94;60.15;100651.50;4379319;32;32891;-83
2023/01/29 00:57:37;;;;;;;2.65;2.55;;;;;;;4.09;59.41;100654.09;4367867;32;33509;-84
2023/01/29 01:00:08;;;;;;;1.08;0.73;;;;;;;4.29;58.82;100656.59;4370804;32;32843;-83
2023/01/29 01:05:37;;;;;;;0.95;0.95;;;;;;;4.10;59.45;100655.81;4353703;32;34357;-83
2023/01/29 01:10:19;;;;;;;1.70;1.60;;;;;;;4.13;59.38;100647.97;4345011;32;33858;-83
2023/01/29 01:11:04;;;;;;;1.67;1.58;;;;;;;4.19;59.32;100650.56;4372403;32;34478;-83
2023/01/29 01:13:33;;;;;;;3.53;2.53;;;;;;;4.23;58.84;100648.81;4384240;32;34321;-84
2023/01/29 01:16:01;;;;;;;1.30;1.17;;;;;;;4.31;58.46;100637.41;4385422;32;33938;-85
2023/01/29 01:18:29;;;;;;;1.15;1.15;;;;;;;4.17;58.82;100641.81;4376538;32;34178;-84
2023/01/29 01:20:58;;;;;;;2.47;1.35;;;;;;;4.32;58.57;100641.78;4358637;32;34079;-84
2023/01/29 01:23:26;;;;;;;2.53;2.33;;;;;;;4.23;58.78;100638.34;4383282;32;33930;-84
2023/01/29 01:25:54;;;;;;;1.98;1.87;;;;;;;4.22;58.64;100640.06;4370723;32;32815;-84
2023/01/29 01:28:21;;;;;;;3.00;2.80;;;;;;;4.20;58.75;100641.81;4364138;32;32553;-84
2023/01/29 01:30:49;;;;;;;2.20;1.92;;;;;;;4.44;57.75;100646.06;4390468;32;34994;-84
2023/01/29 01:33:17;;;;;;;0.30;0.30;;;;;;;4.28;57.73;100650.50;4368786;32;32380;-84
2023/01/29 01:35:45;;;;;;;4.68;2.25;;;;;;;4.23;58.12;100652.28;4371254;32;34518;-84
2023/01/29 01:38:12;;;;;;;2.95;1.25;;;;;;;4.20;57.84;100647.06;4364743;32;32607;-84
2023/01/29 01:40:44;;;;;;;3.92;3.62;;;;;;;4.04;58.74;100643.66;4396135;32;34370;-84
2023/01/29 01:43:12;;;;;;;0.45;0.45;;;;;;;4.03;59.05;100654.09;4372569;32;33736;-83
2023/01/29 01:45:41;;;;;;;1.37;1.27;;;;;;;4.16;58.47;100655.78;4390920;32;33895;-84
2023/01/29 01:48:23;;;;;;;1.10;1.10;;;;;;;4.04;58.81;100653.22;4392453;32;33895;-84
2023/01/29 01:51:02;;;;;;;3.65;3.37;;;;;;;4.06;58.63;100662.78;4385732;32;34844;-84
2023/01/29 01:53:33;;;;;;;1.23;1.23;;;;;;;3.78;59.29;100671.56;4392692;32;33618;-84
2023/01/29 01:56:05;;;;;;;3.00;2.08;;;;;;;3.80;59.37;100667.22;4384727;32;33316;-84
2023/01/29 01:58:40;;;;;;;4.40;4.00;;;;;;;3.83;59.22;100670.69;4370592;32;33443;-83
2023/01/29 02:01:08;;;;;;;1.12;1.12;;;;;;;4.06;58.44;100667.16;4383631;32;34220;-83
2023/01/29 02:09:36;;;;;;;7.03;1.12;;;;;;;3.98;58.97;100661.94;4382827;32;34439;-83
2023/01/29 02:12:05;;;;;;;;;;;;;;;3.93;58.82;100661.06;4379026;32;34187;-84
2023/01/29 02:14:37;;;;;;;0.45;0.45;;;;;;;4.09;58.14;100668.00;4369545;32;32571;-82
2023/01/29 02:17:09;;;;;;;12.23;3.47;;;;;;;3.79;58.97;100673.31;4371394;32;33484;-83
2023/01/29 02:19:59;;;;;;;1.60;1.50;;;;;;;3.97;58.23;100669.78;4371684;32;34335;-82
2023/01/29 02:22:46;;;;;;;1.73;1.65;;;;;;;3.92;58.10;100669.81;4394591;32;34295;-83
2023/01/29 02:25:33;;;;;;;1.77;1.67;;;;;;;3.92;58.10;100677.63;4384200;32;33233;-84
2023/01/29 02:28:28;;;;;;;0.85;0.85;;;;;;;3.72;58.41;100675.06;4374708;32;33567;-83
2023/01/29 02:30:56;;;;;;;1.45;1.35;;;;;;;3.63;59.09;100677.69;4380423;32;33970;-83
2023/01/29 02:33:41;;;;;;;1.00;1.00;;;;;;;3.41;59.44;100691.63;4370297;32;33413;-83
2023/01/29 02:36:36;;;;;;;1.30;1.30;;;;;;;3.47;59.21;100683.81;4384678;32;33380;-83
2023/01/29 02:39:47;;;;;;;0.85;0.85;;;;;;;3.56;59.37;100689.00;4381325;32;33630;-84
2023/01/29 02:42:26;;;;;;;1.58;1.58;;;;;;;3.74;58.31;100691.59;4366129;32;34301;-83
2023/01/29 02:44:58;;;;;;;1.25;1.25;;;;;;;3.72;58.47;100690.75;4374785;32;34282;-82
2023/01/29 02:47:46;;;;;;;0.45;0.45;;;;;;;3.82;57.98;100689.00;4374945;32;32606;-83
2023/01/29 02:50:16;;;;;;;0.77;0.77;;;;;;;3.71;58.56;100691.63;4380955;32;32952;-83
2023/01/29 02:52:53;;;;;;;3.92;3.62;;;;;;;3.75;58.60;100698.59;4380430;32;33237;-84
2023/01/29 02:55:46;;;;;;;0.62;0.62;;;;;;;3.79;58.18;100697.69;4383282;32;32103;-84
2023/01/29 02:58:26;;;;;;;1.80;1.10;;;;;;;3.60;58.60;100699.44;4386035;32;33446;-84
2023/01/29 03:00:59;;;;;;;1.77;1.67;;;;;;;3.72;58.51;100700.34;4385352;32;33829;-84
2023/01/29 03:03:31;;;;;;;5.43;2.47;;;;;;;3.64;58.74;100705.56;4369062;32;33694;-83
2023/01/29 03:06:17;;;;;;;;;;;;;;;3.44;59.13;100704.69;4359603;32;33057;-84
2023/01/29 03:08:59;;;;;;;3.30;0.77;;;;;;;3.52;59.07;100702.97;4384446;32;33374;-85
2023/01/29 03:11:33;;;;;;;1.40;1.30;;;;;;;3.46;58.94;100703.81;4368932;32;32809;-84
2023/01/29 03:14:06;;;;;;;1.37;1.27;;;;;;;3.42;59.28;100698.59;4386675;32;33868;-84
2023/01/29 03:16:48;;;;;;;1.33;1.23;;;;;;;3.44;58.92;100704.69;4369531;32;34143;-84
2023/01/29 03:19:20;;;;;;;0.50;0.50;;;;;;;3.36;58.92;100706.44;4357847;32;32233;-85
2023/01/29 03:21:59;;;;;;;;;;;;;;;3.43;58.99;100708.19;4343976;32;32735;-84
2023/01/29 03:33:05;;;;;;;1.50;1.40;;;;;;;3.53;58.79;100710.78;4364511;32;33206;-83
2023/01/29 03:35:38;;;;;;;11.18;1.67;;;;;;;3.60;59.07;100716.88;4356971;32;34198;-85
2023/01/29 03:38:11;;;;;;;2.35;2.12;;;;;;;3.55;59.52;100716.00;4372972;32;32919;-84
2023/01/29 03:40:51;;;;;;;2.33;2.17;;;;;;;3.74;58.79;100720.34;4364063;32;31988;-85
2023/01/29 03:43:22;;;;;;;2.47;2.30;;;;;;;3.51;59.31;100722.09;4382510;32;33487;-84
2023/01/29 03:46:08;;;;;;;0.85;0.85;;;;;;;3.70;58.72;100721.22;4371395;32;32598;-84
2023/01/29 03:48:44;;;;;;;1.27;1.27;;;;;;;3.91;58.36;100724.69;4385600;32;34172;-84
2023/01/29 03:51:37;;;;;;;0.65;0.65;;;;;;;3.90;58.34;100730.78;4353890;32;33903;-84
2023/01/29 03:54:25;;;;;;;0.88;0.88;;;;;;;4.06;58.07;100727.25;4357286;32;33941;-84
2023/01/29 03:56:58;;;;;;;7.25;2.58;;;;;;;4.04;58.04;100736.84;4376930;32;32292;-84
2023/01/29 03:59:32;;;;;;;1.25;1.15;;;;;;;3.94;58.53;100742.94;4371822;32;34106;-84
2023/01/29 04:02:09;;;;;;;3.12;2.35;;;;;;;4.18;57.68;100723.72;4367420;32;32443;-84
2023/01/29 04:04:41;;;;;;;0.88;0.88;;;;;;;4.05;57.87;100725.53;4369426;32;34188;-84
2023/01/29 04:07:13;;;;;;;1.85;1.20;;;;;;;4.10;57.80;100729.88;4370334;32;34131;-84
2023/01/29 04:09:55;;;;;;;0.13;0.13;;;;;;;4.22;57.52;100728.94;4359923;32;35781;-83
2023/01/29 04:12:34;;;;;;;2.72;2.03;;;;;;;3.93;58.34;100730.75;4370476;32;32475;-84
2023/01/29 04:15:04;;;;;;;4.68;1.75;;;;;;;4.19;57.74;100721.13;4345211;32;33105;-84
2023/01/29 04:17:39;;;;;;;1.15;1.08;;;;;;;4.22;57.73;100723.72;4374707;32;34180;-84
2023/01/29 04:20:08;;;;;;;1.75;1.65;;;;;;;4.16;57.42;100720.25;4382089;32;34769;-82
2023/01/29 04:22:38;;;;;;;0.20;0.20;;;;;;;4.33;56.47;100726.31;4369322;32;32620;-85
2023/01/29 04:25:14;;;;;;;2.05;1.95;;;;;;;4.47;55.91;100723.66;4390435;32;34511;-85
2023/01/29 04:28:04;;;;;;;6.47;1.85;;;;;;;4.03;57.25;100722.03;4355888;32;33304;-85
2023/01/29 04:30:43;;;;;;;1.27;1.17;;;;;;;3.95;57.88;100718.59;4368311;32;33636;-84
2023/01/29 04:33:39;;;;;;;0.45;0.45;;;;;;;3.81;58.36;100716.84;4376651;32;33690;-85
2023/01/29 04:36:34;;;;;;;1.00;1.00;;;;;;;3.94;58.40;100714.19;4380458;32;32657;-85
2023/01/29 04:39:23;;;;;;;0.32;0.32;;;;;;;4.25;56.41;100713.25;4358428;32;32982;-84
2023/01/29 04:42:29;;;;;;;1.87;1.77;;;;;;;4.17;56.65;100719.38;4359907;32;33006;-84
2023/01/29 04:45:02;;;;;;;2.50;2.30;;;;;;;4.43;55.68;100717.56;4380819;32;34103;-85
2023/01/29 04:47:52;;;;;;;1.08;1.08;;;;;;;4.39;55.83;100720.19;4368699;32;32550;-84
2023/01/29 04:50:58;;;;;;;0.98;0.98;;;;;;;4.00;56.99;100727.28;4382515;32;33944;-84
2023/01/29 04:53:40;;;;;;;0.10;0.10;;;;;;;3.99;56.99;100725.53;4361139;32;32464;-84
2023/01/29 04:56:41;;;;;;;1.75;1.33;;;;;;;4.00;56.80;100732.50;4377876;32;33801;-84
2023/01/29 04:59:13;;;;;;;2.85;2.55;;;;;;;3.51;57.89;100724.69;4358475;32;34259;-85
2023/01/29 05:01:42;;;;;;;3.97;1.40;;;;;;;3.64;58.00;100729.06;4374706;32;32967;-84
2023/01/29 05:04:12;;;;;;;0.98;0.85;;;;;;;3.77;57.26;100725.56;4369949;32;34119;-85
2023/01/29 05:06:41;;;;;;;0.40;0.40;;;;;;;3.40;58.51;100724.72;4372164;32;33243;-85
2023/01/29 05:09:08;;;;;;;1.50;1.40;;;;;;;3.44;58.84;100730.81;4369765;32;33813;-85
2023/01/29 05:11:36;;;;;;;1.75;1.65;;;;;;;3.95;57.41;100719.44;4383857;32;33796;-84
2023/01/29 05:14:09;;;;;;;4.18;2.05;;;;;;;3.67;58.30;100723.84;4360559;32;33891;-84
2023/01/29 05:16:43;;;;;;;3.60;3.28;;;;;;;4.01;57.40;100723.78;4372695;32;34080;-83
2023/01/29 05:19:13;;;;;;;2.03;1.92;;;;;;;3.95;57.64;100723.81;4389821;32;33911;-83
2023/01/29 05:21:43;;;;;;;1.10;1.08;;;;;;;3.68;58.56;100725.56;4375719;32;33887;-83
2023/01/29 05:24:31;;;;;;;0.40;0.40;;;;;;;3.75;58.39;100729.03;4383775;32;33182;-83
2023/01/29 05:29:46;;;;;;;0.20;0.20;;;;;;;3.24;59.90;100720.38;4375767;32;34136;-84
2023/01/29 05:32:14;;;;;;;0.60;0.60;;;;;;;3.63;58.65;100722.09;4365532;32;32946;-84
2023/01/29 05:34:42;;;;;;;0.30;0.30;;;;;;;3.53;59.34;100716.00;4367884;32;34162;-83
2023/01/29 05:37:10;;;;;;;1.37;0.77;;;;;;;3.72;59.10;100727.31;4384749;32;32315;-84
2023/01/29 05:39:37;;;;;;;0.10;0.10;;;;;;;3.75;58.86;100727.31;4378641;32;33418;-83
2023/01/29 05:42:05;;;;;;;4.40;2.40;;;;;;;3.70;59.46;100730.78;4396281;32;34062;-84
2023/01/29 05:44:33;;;;;;;0.25;0.25;;;;;;;3.89;58.74;100734.25;4386866;32;33273;-84
2023/01/29 05:47:01;;;;;;;0.00;0.00;;;;;;;3.54;60.22;100729.94;4393377;32;34238;-83
2023/01/29 05:49:29;;;;;;;1.45;1.35;;;;;;;3.99;58.44;100730.78;4378484;32;33138;-84
2023/01/29 05:51:56;;;;;;;0.00;0.00;;;;;;;3.70;nan;100726.44;4389507;32;34365;-84
2023/01/29 05:54:25;;;;;;;0.80;0.80;;;;;;;3.75;59.20;100727.31;4367588;32;32970;-84
2023/01/29 05:56:53;;;;;;;1.45;1.35;;;;;;;3.46;60.06;100721.22;4370372;32;33647;-84
2023/01/29 05:59:21;;;;;;;0.30;0.30;;;;;;;4.03;58.52;100740.31;4373334;32;34030;-84
2023/01/29 06:01:48;;;;;;;1.75;1.55;;;;;;;3.62;59.74;100736.03;4393840;32;33615;-84
2023/01/29 06:04:16;;;;;;;2.03;1.87;;;;;;;3.66;59.51;100732.56;4360847;32;33889;-83
2023/01/29 06:06:45;;;;;;;1.35;1.08;;;;;;;4.04;58.06;100732.50;4370458;32;32662;-85
2023/01/29 06:09:12;;;;;;;2.45;0.70;;;;;;;3.82;59.38;100734.25;4378530;32;32715;-84
2023/01/29 06:11:40;;;;;;;1.08;1.08;;;;;;;4.01;58.69;100739.47;4372148;32;32778;-84
2023/01/29 06:14:08;;;;;;;1.05;0.98;;;;;;;4.13;58.12;100747.28;4377905;32;33046;-83
2023/01/29 06:16:35;;;;;;;1.48;1.37;;;;;;;3.93;58.98;100754.28;4380759;32;32817;-83
2023/01/29 06:19:03;;;;;;;0.00;0.00;;;;;;;3.93;59.09;100749.06;4380012;32;32770;-83
2023/01/29 06:21:31;;;;;;;0.10;0.10;;;;;;;3.93;59.06;100751.66;4370877;32;34002;-84
2023/01/29 06:23:58;;;;;;;0.40;0.40;;;;;;;4.03;58.80;100758.63;4373258;32;34441;-83
2023/01/29 06:26:26;;;;;;;1.37;1.15;;;;;;;3.95;59.00;100761.25;4371609;32;32535;-84
2023/01/29 06:28:54;;;;;;;4.72;1.42;;;;;;;3.81;59.08;100763.88;4380905;32;32926;-84
2023/01/29 06:31:22;;;;;;;0.10;0.10;;;;;;;3.38;60.56;100763.00;4373544;32;34464;-84
2023/01/29 06:34:06;;;;;;;1.17;1.17;;;;;;;3.60;59.80;100771.72;4388668;32;34081;-83
2023/01/29 06:36:34;;;;;;;0.70;0.70;;;;;;;3.81;59.56;100778.69;4386423;32;33740;-83
2023/01/29 06:39:02;;;;;;;1.75;1.65;;;;;;;4.25;57.40;100785.59;4394770;32;33487;-83
2023/01/29 06:41:30;;;;;;;0.25;0.25;;;;;;;4.12;57.79;100796.06;4394892;32;33512;-82
2023/01/29 06:43:58;;;;;;;0.45;0.45;;;;;;;3.87;58.91;100785.66;4394602;32;34233;-83
2023/01/29 06:46:25;;;;;;;1.23;1.10;;;;;;;3.93;58.37;100789.13;4369599;32;33530;-83
2023/01/29 06:48:56;;;;;;;0.57;0.57;;;;;;;4.00;58.25;100790.88;4369679;32;32446;-83
2023/01/29 06:51:23;;;;;;;1.55;1.45;;;;;;;3.96;58.73;100798.72;4369783;32;33909;-83
2023/01/29 06:53:53;;;;;;;0.40;0.40;;;;;;;3.65;59.35;100797.81;4382460;32;34196;-84
2023/01/29 06:56:21;;;;;;;0.17;0.17;;;;;;;3.81;59.04;100800.47;4385604;32;32919;-84
2023/01/29 06:58:49;;;;;;;0.55;0.52;;;;;;;3.99;58.48;100796.09;4385358;32;34660;-83
2023/01/29 07:01:16;;;;;;;0.00;0.00;;;;;;;4.21;57.27;100789.09;4379991;32;33555;-84
2023/01/29 07:04:02;;;;;;;0.40;0.40;;;;;;;4.34;56.65;100796.91;4372338;32;32711;-83
2023/01/29 07:06:30;;;;;;;0.13;0.13;;;;;;;4.09;57.63;100797.81;4361338;32;32947;-83
2023/01/29 07:08:58;;;;;;;1.08;0.98;;;;;;;3.84;58.21;100784.75;4374913;32;34667;-84
2023/01/29 07:11:26;;;;;;;1.80;1.70;;;;;;;3.82;58.59;100783.91;4369610;32;33941;-84
2023/01/29 07:13:53;;;;;;;0.73;0.43;;;;;;;3.53;59.77;100793.47;4360722;32;33439;-84
2023/01/29 07:16:22;;;;;;;0.88;0.88;;;;;;;3.79;58.47;100786.50;4384368;32;33380;-83
2023/01/29 07:18:50;;;;;;;3.08;1.55;;;;;;;3.81;58.36;100784.78;4375373;32;33739;-84
2023/01/29 07:21:18;;;;;;;0.30;0.30;;;;;;;3.62;58.74;100790.88;4342064;32;33456;-82
2023/01/29 07:23:45;;;;;;;0.00;0.00;;;;;;;3.73;58.40;100786.50;4354116;32;34582;-84
2023/01/29 07:26:13;;;;;;;0.00;0.00;;;;;;;3.89;57.72;100792.59;4363716;32;32268;-84
2023/01/29 07:28:41;;;;;;;1.33;1.25;;;;;;;3.62;58.56;100784.78;4368743;32;34564;-86
2023/01/29 07:31:11;;;;;;;1.70;1.00;;;;;;;3.28;59.67;100776.94;4365161;32;32919;-83
2023/01/29 07:33:39;;;;;;;3.22;1.40;;;;;;;3.40;59.53;100786.50;4347495;32;32350;-82
2023/01/29 07:36:08;;;;;;;0.62;0.62;;;;;;;3.60;58.45;100776.94;4346856;32;33390;-82
2023/01/29 07:38:35;;;;;;;0.00;0.00;;;;;;;3.20;59.54;100773.41;4365967;32;31882;-82
2023/01/29 07:41:03;;;;;;;0.32;0.32;;;;;;;3.70;57.70;100757.78;4364416;32;32735;-82
2023/01/29 07:43:31;;;;;;;0.25;0.25;;;;;;;3.58;58.02;100765.63;4376194;32;31565;-83
2023/01/29 07:46:03;;;;;;;2.08;1.95;;;;;;;3.41;58.62;100762.13;4365612;32;32226;-82
2023/01/29 07:48:32;;;;;;;;;;;;;;;3.77;56.79;100756.03;4361161;32;34016;-82
2023/01/29 07:50:59;;;;;;;1.10;1.05;;;;;;;3.88;56.98;100756.91;4366543;32;33815;-82
2023/01/29 07:53:27;;;;;;;1.95;1.12;;;;;;;3.76;57.51;100754.31;4339330;32;33905;-83
2023/01/29 07:55:55;;;;;;;0.47;0.40;;;;;;;3.50;57.94;100762.13;4365832;32;30761;-82
2023/01/29 07:58:23;;;;;;;0.15;0.15;;;;;;;3.28;59.11;100766.47;4341975;32;33524;-82
2023/01/29 08:00:50;;;;;;;0.00;0.00;;;;;;;3.42;58.43;100775.19;4355124;32;34133;-82
2023/01/29 08:03:19;;;;;;;0.03;0.03;;;;;;;3.20;58.65;100774.28;4379227;32;32336;-83
2023/01/29 08:05:46;;;;;;;0.17;0.17;;;;;;;3.83;56.03;100769.09;4365998;32;34268;-82
2023/01/29 08:08:14;;;;;;;0.00;0.00;;;;;;;3.61;57.11;100765.63;4348801;32;184593;-83
2023/01/29 08:10:42;;;;;;;1.17;1.17;;;;;;;3.57;57.65;100763.91;4358588;32;34072;-83
2023/01/29 08:13:09;;;;;;;1.23;1.02;;;;;;;3.68;57.82;100754.31;4371866;32;32624;-83
2023/01/29 08:15:37;;;;;;;1.23;1.17;;;;;;;3.74;57.33;100764.75;4372913;32;33195;-82
2023/01/29 08:18:08;;;;;;;0.55;0.55;;;;;;;3.70;57.23;100760.38;4382320;32;33159;-82
2023/01/29 08:20:36;;;;;;;0.43;0.43;;;;;;;3.62;56.86;100767.38;4352220;32;32962;-82
2023/01/29 08:23:05;;;;;;;0.25;0.25;;;;;;;3.58;56.34;100766.50;4362144;32;30939;-82
2023/01/29 08:25:34;;;;;;;0.05;0.05;;;;;;;3.81;55.94;100768.25;4371363;32;33009;-83
2023/01/29 08:28:02;;;;;;;2.45;1.35;;;;;;;3.79;56.29;100765.59;4362840;32;32764;-82
2023/01/29 08:30:32;;;;;;;0.43;0.43;;;;;;;3.40;57.70;100770.84;4370800;32;34401;-82
2023/01/29 08:33:01;;;;;;;0.35;0.35;;;;;;;4.06;54.73;100776.91;4368701;32;34308;-83
2023/01/29 08:35:29;;;;;;;1.00;0.75;;;;;;;3.37;57.04;100787.38;4368748;32;33207;-82
2023/01/29 08:38:02;;;;;;;2.55;1.48;;;;;;;3.44;57.01;100783.91;4358353;32;32413;-83
2023/01/29 08:40:32;;;;;;;0.40;0.40;;;;;;;3.42;57.41;100789.97;4364588;32;33313;-83
2023/01/29 08:43:05;;;;;;;0.00;0.00;;;;;;;3.79;55.97;100781.28;4371029;32;33042;-82
2023/01/29 08:45:38;;;;;;;0.15;0.15;;;;;;;3.57;56.44;100784.78;4374374;32;33311;-83
2023/01/29 08:48:05;;;;;;;0.10;0.10;;;;;;;3.67;55.88;100799.59;4376054;32;31201;-83
2023/01/29 08:50:33;;;;;;;1.80;1.55;;;;;;;3.40;56.98;100802.16;4367475;32;30825;-83
2023/01/29 08:53:06;;;;;;;0.00;0.00;;;;;;;3.92;56.12;100805.66;4375718;32;34438;-83
2023/01/29 08:55:36;;;;;;;0.52;0.52;;;;;;;4.08;54.38;100806.50;4372696;32;33197;-83
2023/01/29 08:58:04;;;;;;;0.20;0.20;;;;;;;3.35;56.72;100807.38;4377374;32;32628;-83
2023/01/29 09:00:33;;;;;;;0.10;0.10;;;;;;;3.46;56.35;100826.53;4371788;32;32111;-83
2023/01/29 09:03:01;;;;;;;0.55;0.55;;;;;;;3.73;55.47;100828.31;4357158;32;35757;-83
2023/01/29 09:05:29;;;;;;;0.45;0.45;;;;;;;3.54;56.73;100826.56;4362451;32;33313;-83
2023/01/29 09:07:57;;;;;;;4.30;1.55;;;;;;;3.87;54.82;100824.84;4359960;32;31887;-85
2023/01/29 09:10:25;;;;;;;0.50;0.50;;;;;;;3.77;53.97;100823.97;4369971;32;32867;-84
2023/01/29 09:12:53;;;;;;;0.05;0.05;;;;;;;3.74;54.12;100819.59;4358164;32;33052;-84
2023/01/29 09:15:21;;;;;;;1.23;1.12;;;;;;;3.09;57.34;100836.03;4359055;32;33530;-83
2023/01/29 09:17:48;;;;;;;0.75;0.75;;;;;;;3.26;55.72;100836.94;4372573;32;33657;-83
2023/01/29 09:20:17;;;;;;;0.30;0.30;;;;;;;3.44;55.44;100824.81;4335157;32;33431;-82
2023/01/29 09:22:45;;;;;;;0.03;0.03;;;;;;;3.44;54.68;100824.81;4370869;32;33618;-82
2023/01/29 09:25:13;;;;;;;7.95;1.25;;;;;;;2.93;56.92;100837.69;4334368;32;33851;-83
2023/01/29 09:27:41;;;;;;;2.17;1.55;;;;;;;3.22;55.94;100834.31;4371471;32;32969;-83
2023/01/29 09:30:10;;;;;;;1.00;1.00;;;;;;;3.59;55.00;100830.91;4359815;32;32968;-83
2023/01/29 09:32:37;;;;;;;0.75;0.75;;;;;;;3.15;55.74;100829.97;4360654;32;33283;-83
2023/01/29 09:35:22;;;;;;;0.75;0.75;;;;;;;3.44;54.87;100836.13;4357883;32;33394;-83
2023/01/29 09:37:50;;;;;;;0.55;0.55;;;;;;;3.60;54.29;100832.63;4358582;32;34324;-83
2023/01/29 09:40:28;;;;;;;0.60;0.60;;;;;;;3.10;55.70;100844.72;4359901;32;35007;-82
2023/01/29 09:43:06;;;;;;;0.50;0.50;;;;;;;3.60;54.24;100837.00;4383170;32;33849;-82
2023/01/29 09:45:35;;;;;;;0.00;0.00;;;;;;;2.93;56.11;100842.91;4370989;32;33926;-83
2023/01/29 09:48:06;;;;;;;0.25;0.25;;;;;;;2.69;57.20;100843.69;4358452;32;33151;-83
2023/01/29 09:50:40;;;;;;;0.10;0.10;;;;;;;3.11;56.35;100842.12;4371967;32;33038;-83
2023/01/29 09:53:41;;;;;;;0.45;0.32;;;;;;;2.91;57.08;100839.44;4383779;32;33735;-83
2023/01/29 09:56:15;;;;;;;1.75;1.58;;;;;;;3.18;56.68;100836.06;4369812;32;33138;-82
2023/01/29 09:58:43;;;;;;;0.03;0.03;;;;;;;3.68;54.24;100840.50;4373795;32;31860;-83
2023/01/29 10:01:33;;;;;;;1.75;0.85;;;;;;;3.87;53.74;100837.91;4373443;32;34417;-83
2023/01/29 10:04:07;;;;;;;1.65;1.00;;;;;;;3.64;55.07;100845.72;4372762;32;33495;-83
2023/01/29 10:06:57;;;;;;;0.20;0.20;;;;;;;3.34;54.67;100848.28;4384762;32;33502;-83
2023/01/29 10:09:43;;;;;;;0.43;0.43;;;;;;;3.56;54.42;100850.91;4372881;32;33517;-83
2023/01/29 10:12:43;;;;;;;0.57;0.52;;;;;;;3.47;54.21;100850.94;4376707;32;34083;-83
2023/01/29 10:15:27;;;;;;;0.00;0.00;;;;;;;3.65;53.52;100845.72;4373540;32;33086;-83
2023/01/29 10:18:43;;;;;;;0.32;0.32;;;;;;;3.30;55.06;100849.12;4388570;32;33744;-83
2023/01/29 10:21:41;;;;;;;0.15;0.15;;;;;;;3.47;54.67;100857.03;4365132;32;34143;-83
2023/01/29 10:24:30;;;;;;;0.20;0.20;;;;;;;3.34;54.96;100855.25;4365269;32;33918;-83
2023/01/29 10:26:59;;;;;;;0.00;0.00;;;;;;;3.62;53.26;100850.94;4379422;32;37083;-83
2023/01/29 10:29:27;;;;;;;1.45;1.27;;;;;;;3.33;54.39;100854.37;4362738;32;32981;-83
2023/01/29 10:32:03;;;;;;;1.02;0.40;;;;;;;3.81;53.25;100850.09;4382670;32;33027;-83
2023/01/29 10:34:37;;;;;;;0.00;0.00;;;;;;;4.04;51.55;100851.84;4368757;32;34496;-83
2023/01/29 10:37:35;;;;;;;1.85;1.42;;;;;;;3.69;53.45;100852.69;4378718;32;33932;-83
2023/01/29 10:40:18;;;;;;;2.95;1.77;;;;;;;3.22;54.56;100856.06;4355891;32;32907;-83
2023/01/29 10:42:52;;;;;;;0.10;0.10;;;;;;;3.53;52.82;100850.94;4388389;32;32953;-84
2023/01/29 10:45:48;;;;;;;0.10;0.10;;;;;;;3.42;53.23;100855.25;4379684;32;32935;-83
2023/01/29 10:48:39;;;;;;;0.30;0.30;;;;;;;3.53;52.62;100857.03;4390348;32;33351;-83
2023/01/29 10:51:16;;;;;;;0.00;0.00;;;;;;;3.65;51.86;100837.00;4379730;32;32051;-83
2023/01/29 10:54:15;;;;;;;0.40;0.40;;;;;;;3.34;52.91;100840.44;4378071;32;31723;-83
2023/01/29 10:57:04;;;;;;;0.32;0.32;;;;;;;3.55;52.82;100833.50;4377256;32;31713;-83
2023/01/29 10:59:45;;;;;;;0.85;0.62;;;;;;;3.98;51.32;100833.53;4388717;32;33946;-83
2023/01/29 11:02:16;;;;;;;0.00;0.00;;;;;;;4.19;50.16;100823.06;4382702;32;33355;-83
2023/01/29 11:04:45;;;;;;;0.00;0.00;;;;;;;4.01;51.33;100812.63;4368181;32;33517;-83
2023/01/29 11:07:15;;;;;;;0.15;0.15;;;;;;;3.95;51.38;100810.03;4374063;32;33703;-83
2023/01/29 11:10:13;;;;;;;0.10;0.10;;;;;;;3.28;53.11;100810.84;4371259;32;34336;-83
2023/01/29 11:12:42;;;;;;;0.75;0.75;;;;;;;3.76;51.57;100807.44;4369398;32;34305;-83
2023/01/29 11:15:27;;;;;;;0.10;0.10;;;;;;;3.85;50.82;100802.19;4360903;32;33204;-83
2023/01/29 11:18:12;;;;;;;0.22;0.22;;;;;;;4.10;49.39;100812.63;4336001;32;33475;-83
2023/01/29 11:20:41;;;;;;;2.80;0.88;;;;;;;3.88;50.61;100805.66;4359507;32;33892;-83
2023/01/29 11:23:38;;;;;;;1.45;1.35;;;;;;;4.00;49.26;100795.22;4371274;32;33114;-83
2023/01/29 11:26:09;;;;;;;0.37;0.30;;;;;;;4.15;48.44;100787.34;4349706;32;33572;-84
2023/01/29 11:28:42;;;;;;;1.37;1.15;;;;;;;3.94;48.89;100779.53;4353061;32;32592;-83
2023/01/29 11:31:25;;;;;;;0.30;0.30;;;;;;;3.67;49.61;100780.44;4371466;32;34630;-84
2023/01/29 11:34:11;;;;;;;0.00;0.00;;;;;;;3.85;49.01;100777.81;4371216;32;32598;-83
2023/01/29 11:36:39;;;;;;;0.32;0.32;;;;;;;3.74;49.38;100772.56;4361520;32;33344;-83
2023/01/29 11:39:07;;;;;;;0.00;0.00;;;;;;;3.60;50.56;100772.56;4372241;32;33940;-83
2023/01/29 11:41:43;;;;;;;0.28;0.28;;;;;;;3.76;49.72;100765.63;4374020;32;32414;-83
2023/01/29 11:44:25;;;;;;;12.60;1.67;;;;;;;3.92;49.17;100766.47;4372018;32;31272;-83
2023/01/29 11:46:54;;;;;;;0.43;0.43;;;;;;;3.63;48.88;100758.66;4370847;32;33892;-83
2023/01/29 11:49:29;;;;;;;3.72;2.35;;;;;;;3.75;49.31;100757.78;4371175;32;34206;-83
2023/01/29 11:52:00;;;;;;;0.00;0.00;;;;;;;3.48;51.02;100763.88;4371838;32;33364;-83
2023/01/29 11:54:33;;;;;;;;;;;;;;;3.63;49.72;100743.00;4373846;32;33308;-84
2023/01/29 11:57:02;;;;;;;0.03;0.03;;;;;;;3.89;48.77;100742.09;4346925;32;33904;-81
2023/01/29 11:59:42;;;;;;;0.00;0.00;;;;;;;3.39;50.25;100743.00;4373097;32;35364;-81
2023/01/29 12:02:34;;;;;;;1.37;1.27;;;;;;;3.81;48.85;100737.75;4359714;32;32716;-81
2023/01/29 12:05:23;;;;;;;0.20;0.20;;;;;;;3.85;49.50;100739.50;4361836;32;34113;-81
2023/01/29 12:07:53;;;;;;;2.28;1.75;;;;;;;3.80;49.58;100738.63;4371484;32;33487;-81
2023/01/29 12:10:34;;;;;;;1.50;1.35;;;;;;;4.23;46.87;100730.72;4376078;32;32015;-81
2023/01/29 12:13:08;;;;;;;1.30;0.80;;;;;;;4.09;47.95;100738.59;4370327;32;33447;-81
2023/01/29 12:15:38;;;;;;;1.33;1.25;;;;;;;4.24;46.50;100740.28;4359400;32;32773;-81
2023/01/29 12:18:37;;;;;;;1.40;0.70;;;;;;;4.08;47.93;100735.94;4346612;32;33027;-81
2023/01/29 12:21:13;;;;;;;0.15;0.15;;;;;;;4.09;47.34;100733.34;4347209;32;33101;-82
2023/01/29 12:23:41;;;;;;;0.15;0.15;;;;;;;3.95;48.69;100729.03;4370535;32;33636;-81
2023/01/29 12:26:14;;;;;;;1.65;0.62;;;;;;;4.12;46.24;100728.09;4358623;32;34405;-81
2023/01/29 12:28:57;;;;;;;3.83;1.85;;;;;;;4.04;46.75;100718.56;4345521;32;33699;-81
2023/01/29 12:31:31;;;;;;;0.35;0.35;;;;;;;4.95;45.24;100711.19;4371532;32;34602;-81